sensor_id;sensor_type;location;lat;lon;timestamp;P1;durP1;ratioP1;P2;durP2;ratioP2
35223;SDS011;21367;51.930;8.112;2023-04-25T00:04:50;24.70;;;6.63;;
35223;SDS011;21367;51.930;8.112;2023-04-25T00:09:57;24.63;;;6.10;;
35223;SDS011;21367;51.930;8.112;2023-04-25T00:15:01;29.98;;;6.72;;
35223;SDS011;21367;51.930;8.112;2023-04-25T00:20:06;30.13;;;6.28;;
35223;SDS011;21367;51.930;8.112;2023-04-25T00:25:14;35.70;;;6.23;;
35223;SDS011;21367;51.930;8.112;2023-04-25T00:30:18;33.95;;;6.40;;
35223;SDS011;21367;51.930;8.112;2023-04-25T00:35:22;27.75;;;7.60;;
35223;SDS011;21367;51.930;8.112;2023-04-25T00:40:29;23.55;;;7.15;;
35223;SDS011;21367;51.930;8.112;2023-04-25T00:45:32;25.65;;;6.93;;
35223;SDS011;21367;51.930;8.112;2023-04-25T00:50:41;32.35;;;6.93;;
35223;SDS011;21367;51.930;8.112;2023-04-25T00:55:54;23.75;;;7.07;;
35223;SDS011;21367;51.930;8.112;2023-04-25T01:01:01;26.98;;;7.65;;
35223;SDS011;21367;51.930;8.112;2023-04-25T01:06:10;27.42;;;7.30;;
35223;SDS011;21367;51.930;8.112;2023-04-25T01:11:17;36.22;;;6.78;;
35223;SDS011;21367;51.930;8.112;2023-04-25T01:16:21;30.17;;;8.75;;
35223;SDS011;21367;51.930;8.112;2023-04-25T01:21:28;32.75;;;7.65;;
35223;SDS011;21367;51.930;8.112;2023-04-25T01:26:32;27.77;;;7.93;;
35223;SDS011;21367;51.930;8.112;2023-04-25T01:31:40;28.52;;;7.90;;
35223;SDS011;21367;51.930;8.112;2023-04-25T01:36:48;27.85;;;7.50;;
35223;SDS011;21367;51.930;8.112;2023-04-25T01:41:53;23.50;;;7.55;;
35223;SDS011;21367;51.930;8.112;2023-04-25T01:46:56;23.55;;;7.88;;
35223;SDS011;21367;51.930;8.112;2023-04-25T01:52:04;21.40;;;7.93;;
35223;SDS011;21367;51.930;8.112;2023-04-25T01:57:08;21.45;;;7.70;;
35223;SDS011;21367;51.930;8.112;2023-04-25T02:02:14;20.98;;;8.07;;
35223;SDS011;21367;51.930;8.112;2023-04-25T02:07:21;22.98;;;8.05;;
35223;SDS011;21367;51.930;8.112;2023-04-25T02:12:27;29.15;;;8.23;;
35223;SDS011;21367;51.930;8.112;2023-04-25T02:17:54;31.50;;;8.63;;
35223;SDS011;21367;51.930;8.112;2023-04-25T02:23:00;20.88;;;7.75;;
35223;SDS011;21367;51.930;8.112;2023-04-25T02:28:05;23.38;;;7.40;;
35223;SDS011;21367;51.930;8.112;2023-04-25T02:33:10;24.73;;;6.60;;
35223;SDS011;21367;51.930;8.112;2023-04-25T02:38:16;20.98;;;6.00;;
35223;SDS011;21367;51.930;8.112;2023-04-25T02:43:20;17.25;;;5.45;;
35223;SDS011;21367;51.930;8.112;2023-04-25T02:48:26;24.77;;;5.57;;
35223;SDS011;21367;51.930;8.112;2023-04-25T02:53:32;26.85;;;5.68;;
35223;SDS011;21367;51.930;8.112;2023-04-25T02:58:36;20.75;;;5.25;;
35223;SDS011;21367;51.930;8.112;2023-04-25T03:03:40;25.88;;;5.40;;
35223;SDS011;21367;51.930;8.112;2023-04-25T03:08:47;25.25;;;5.00;;
35223;SDS011;21367;51.930;8.112;2023-04-25T03:13:51;22.45;;;4.85;;
35223;SDS011;21367;51.930;8.112;2023-04-25T03:18:56;25.80;;;4.68;;
35223;SDS011;21367;51.930;8.112;2023-04-25T03:24:03;31.98;;;5.22;;
35223;SDS011;21367;51.930;8.112;2023-04-25T03:29:08;25.10;;;5.18;;
35223;SDS011;21367;51.930;8.112;2023-04-25T03:34:14;32.80;;;5.13;;
35223;SDS011;21367;51.930;8.112;2023-04-25T03:39:21;30.75;;;5.90;;
35223;SDS011;21367;51.930;8.112;2023-04-25T03:44:26;38.58;;;5.95;;
35223;SDS011;21367;51.930;8.112;2023-04-25T03:49:30;33.25;;;5.40;;
35223;SDS011;21367;51.930;8.112;2023-04-25T03:54:38;35.17;;;5.55;;
35223;SDS011;21367;51.930;8.112;2023-04-25T03:59:45;37.25;;;5.40;;
35223;SDS011;21367;51.930;8.112;2023-04-25T04:04:50;36.95;;;5.88;;
35223;SDS011;21367;51.930;8.112;2023-04-25T04:09:59;30.77;;;4.80;;
35223;SDS011;21367;51.930;8.112;2023-04-25T04:15:09;25.42;;;5.50;;
35223;SDS011;21367;51.930;8.112;2023-04-25T04:20:14;30.13;;;5.20;;
35223;SDS011;21367;51.930;8.112;2023-04-25T04:25:20;26.95;;;5.20;;
35223;SDS011;21367;51.930;8.112;2023-04-25T04:30:39;30.88;;;5.22;;
35223;SDS011;21367;51.930;8.112;2023-04-25T04:35:46;33.58;;;5.13;;
35223;SDS011;21367;51.930;8.112;2023-04-25T04:40:56;41.13;;;5.40;;
35223;SDS011;21367;51.930;8.112;2023-04-25T04:46:18;42.25;;;5.82;;
35223;SDS011;21367;51.930;8.112;2023-04-25T04:51:45;40.90;;;6.47;;
35223;SDS011;21367;51.930;8.112;2023-04-25T04:57:13;32.83;;;4.38;;
35223;SDS011;21367;51.930;8.112;2023-04-25T05:02:29;43.50;;;5.30;;
35223;SDS011;21367;51.930;8.112;2023-04-25T05:08:09;33.55;;;5.28;;
35223;SDS011;21367;51.930;8.112;2023-04-25T05:13:23;31.08;;;5.10;;
35223;SDS011;21367;51.930;8.112;2023-04-25T05:18:41;32.47;;;5.78;;
35223;SDS011;21367;51.930;8.112;2023-04-25T05:24:04;33.60;;;4.82;;
35223;SDS011;21367;51.930;8.112;2023-04-25T05:34:24;32.83;;;5.15;;
35223;SDS011;21367;51.930;8.112;2023-04-25T05:39:31;33.25;;;4.93;;
35223;SDS011;21367;51.930;8.112;2023-04-25T05:44:42;33.83;;;4.93;;
35223;SDS011;21367;51.930;8.112;2023-04-25T05:50:26;41.63;;;8.73;;
35223;SDS011;21367;51.930;8.112;2023-04-25T05:55:47;24.95;;;4.65;;
35223;SDS011;21367;51.930;8.112;2023-04-25T06:00:59;29.35;;;4.65;;
35223;SDS011;21367;51.930;8.112;2023-04-25T06:06:06;44.75;;;5.35;;
35223;SDS011;21367;51.930;8.112;2023-04-25T06:11:10;32.25;;;4.72;;
35223;SDS011;21367;51.930;8.112;2023-04-25T06:16:14;24.02;;;4.13;;
35223;SDS011;21367;51.930;8.112;2023-04-25T06:21:20;36.63;;;4.28;;
35223;SDS011;21367;51.930;8.112;2023-04-25T06:26:25;41.25;;;4.38;;
35223;SDS011;21367;51.930;8.112;2023-04-25T06:31:29;37.97;;;4.60;;
35223;SDS011;21367;51.930;8.112;2023-04-25T06:36:36;32.63;;;3.72;;
35223;SDS011;21367;51.930;8.112;2023-04-25T06:41:44;32.22;;;4.45;;
35223;SDS011;21367;51.930;8.112;2023-04-25T06:47:08;33.22;;;4.53;;
35223;SDS011;21367;51.930;8.112;2023-04-25T06:52:16;38.72;;;4.25;;
35223;SDS011;21367;51.930;8.112;2023-04-25T06:57:20;35.35;;;4.13;;
35223;SDS011;21367;51.930;8.112;2023-04-25T07:02:24;23.52;;;4.13;;
35223;SDS011;21367;51.930;8.112;2023-04-25T07:07:31;28.80;;;3.47;;
35223;SDS011;21367;51.930;8.112;2023-04-25T07:12:36;17.50;;;3.10;;
35223;SDS011;21367;51.930;8.112;2023-04-25T07:17:40;22.48;;;3.78;;
35223;SDS011;21367;51.930;8.112;2023-04-25T07:22:46;22.33;;;2.88;;
35223;SDS011;21367;51.930;8.112;2023-04-25T07:27:50;28.55;;;4.38;;
35223;SDS011;21367;51.930;8.112;2023-04-25T07:32:55;28.73;;;3.17;;
35223;SDS011;21367;51.930;8.112;2023-04-25T07:38:02;22.58;;;3.42;;
35223;SDS011;21367;51.930;8.112;2023-04-25T07:43:07;26.63;;;2.85;;
35223;SDS011;21367;51.930;8.112;2023-04-25T07:48:21;21.73;;;2.90;;
35223;SDS011;21367;51.930;8.112;2023-04-25T07:53:29;22.63;;;3.35;;
35223;SDS011;21367;51.930;8.112;2023-04-25T07:58:38;28.95;;;3.30;;
35223;SDS011;21367;51.930;8.112;2023-04-25T08:03:44;23.45;;;3.40;;
35223;SDS011;21367;51.930;8.112;2023-04-25T08:09:09;18.60;;;3.20;;
35223;SDS011;21367;51.930;8.112;2023-04-25T08:14:15;17.60;;;2.42;;
35223;SDS011;21367;51.930;8.112;2023-04-25T08:19:19;18.60;;;2.75;;
35223;SDS011;21367;51.930;8.112;2023-04-25T08:24:26;14.35;;;2.15;;
35223;SDS011;21367;51.930;8.112;2023-04-25T08:29:30;24.40;;;2.72;;
35223;SDS011;21367;51.930;8.112;2023-04-25T08:34:34;16.77;;;2.30;;
35223;SDS011;21367;51.930;8.112;2023-04-25T08:39:42;14.10;;;2.17;;
35223;SDS011;21367;51.930;8.112;2023-04-25T08:45:15;19.98;;;2.55;;
35223;SDS011;21367;51.930;8.112;2023-04-25T08:50:19;19.40;;;2.35;;
35223;SDS011;21367;51.930;8.112;2023-04-25T08:55:29;16.38;;;2.58;;
35223;SDS011;21367;51.930;8.112;2023-04-25T09:00:33;16.45;;;2.83;;
35223;SDS011;21367;51.930;8.112;2023-04-25T09:05:38;21.77;;;2.58;;
35223;SDS011;21367;51.930;8.112;2023-04-25T09:10:46;19.83;;;2.90;;
35223;SDS011;21367;51.930;8.112;2023-04-25T09:15:51;21.13;;;2.40;;
35223;SDS011;21367;51.930;8.112;2023-04-25T09:21:28;18.80;;;2.22;;
35223;SDS011;21367;51.930;8.112;2023-04-25T09:26:35;15.35;;;3.13;;
35223;SDS011;21367;51.930;8.112;2023-04-25T09:31:41;15.05;;;2.70;;
35223;SDS011;21367;51.930;8.112;2023-04-25T09:36:46;19.90;;;2.38;;
35223;SDS011;21367;51.930;8.112;2023-04-25T09:41:56;12.55;;;2.00;;
35223;SDS011;21367;51.930;8.112;2023-04-25T09:47:00;14.30;;;2.15;;
35223;SDS011;21367;51.930;8.112;2023-04-25T09:52:05;9.13;;;1.98;;
35223;SDS011;21367;51.930;8.112;2023-04-25T09:57:18;13.55;;;2.13;;
35223;SDS011;21367;51.930;8.112;2023-04-25T10:02:24;8.57;;;1.88;;
35223;SDS011;21367;51.930;8.112;2023-04-25T10:07:34;11.02;;;2.42;;
35223;SDS011;21367;51.930;8.112;2023-04-25T10:12:47;14.95;;;1.85;;
35223;SDS011;21367;51.930;8.112;2023-04-25T10:17:51;16.98;;;2.20;;
35223;SDS011;21367;51.930;8.112;2023-04-25T10:22:55;10.85;;;1.77;;
35223;SDS011;21367;51.930;8.112;2023-04-25T10:28:09;17.90;;;2.05;;
35223;SDS011;21367;51.930;8.112;2023-04-25T10:33:16;10.95;;;2.38;;
35223;SDS011;21367;51.930;8.112;2023-04-25T10:38:20;12.80;;;2.22;;
35223;SDS011;21367;51.930;8.112;2023-04-25T10:43:37;12.95;;;1.75;;
35223;SDS011;21367;51.930;8.112;2023-04-25T10:48:45;7.13;;;1.30;;
35223;SDS011;21367;51.930;8.112;2023-04-25T10:53:57;11.80;;;1.58;;
35223;SDS011;21367;51.930;8.112;2023-04-25T10:59:09;6.93;;;1.25;;
35223;SDS011;21367;51.930;8.112;2023-04-25T11:04:20;6.65;;;1.60;;
35223;SDS011;21367;51.930;8.112;2023-04-25T11:09:27;7.18;;;1.50;;
35223;SDS011;21367;51.930;8.112;2023-04-25T11:14:35;7.78;;;1.60;;
35223;SDS011;21367;51.930;8.112;2023-04-25T11:19:47;11.70;;;1.80;;
35223;SDS011;21367;51.930;8.112;2023-04-25T11:25:00;17.10;;;1.77;;
35223;SDS011;21367;51.930;8.112;2023-04-25T11:30:15;23.52;;;1.77;;
35223;SDS011;21367;51.930;8.112;2023-04-25T11:35:20;9.25;;;1.50;;
35223;SDS011;21367;51.930;8.112;2023-04-25T11:40:36;9.18;;;1.60;;
35223;SDS011;21367;51.930;8.112;2023-04-25T11:45:48;7.57;;;1.23;;
35223;SDS011;21367;51.930;8.112;2023-04-25T11:50:53;7.28;;;1.60;;
35223;SDS011;21367;51.930;8.112;2023-04-25T11:55:57;9.95;;;1.35;;
35223;SDS011;21367;51.930;8.112;2023-04-25T12:01:04;10.23;;;1.25;;
35223;SDS011;21367;51.930;8.112;2023-04-25T12:06:08;12.48;;;2.63;;
35223;SDS011;21367;51.930;8.112;2023-04-25T12:11:20;12.50;;;2.33;;
35223;SDS011;21367;51.930;8.112;2023-04-25T12:16:28;10.50;;;1.50;;
35223;SDS011;21367;51.930;8.112;2023-04-25T12:21:33;7.18;;;1.70;;
35223;SDS011;21367;51.930;8.112;2023-04-25T12:32:02;11.13;;;1.63;;
35223;SDS011;21367;51.930;8.112;2023-04-25T12:37:07;9.77;;;1.23;;
35223;SDS011;21367;51.930;8.112;2023-04-25T12:42:12;8.50;;;1.38;;
35223;SDS011;21367;51.930;8.112;2023-04-25T12:47:21;12.85;;;1.60;;
35223;SDS011;21367;51.930;8.112;2023-04-25T12:52:26;8.68;;;0.95;;
35223;SDS011;21367;51.930;8.112;2023-04-25T12:57:33;5.20;;;1.15;;
35223;SDS011;21367;51.930;8.112;2023-04-25T13:02:44;4.43;;;1.08;;
35223;SDS011;21367;51.930;8.112;2023-04-25T13:07:49;7.70;;;1.10;;
35223;SDS011;21367;51.930;8.112;2023-04-25T13:12:53;4.15;;;0.85;;
35223;SDS011;21367;51.930;8.112;2023-04-25T13:17:59;9.13;;;1.10;;
35223;SDS011;21367;51.930;8.112;2023-04-25T13:23:08;8.60;;;1.27;;
35223;SDS011;21367;51.930;8.112;2023-04-25T13:28:12;8.48;;;1.23;;
35223;SDS011;21367;51.930;8.112;2023-04-25T13:33:19;4.53;;;0.90;;
35223;SDS011;21367;51.930;8.112;2023-04-25T13:38:26;8.18;;;1.42;;
35223;SDS011;21367;51.930;8.112;2023-04-25T13:48:50;19.35;;;1.92;;
35223;SDS011;21367;51.930;8.112;2023-04-25T13:53:54;14.57;;;3.70;;
35223;SDS011;21367;51.930;8.112;2023-04-25T13:58:58;8.25;;;1.27;;
35223;SDS011;21367;51.930;8.112;2023-04-25T14:04:04;8.80;;;1.63;;
35223;SDS011;21367;51.930;8.112;2023-04-25T14:09:08;8.77;;;1.77;;
35223;SDS011;21367;51.930;8.112;2023-04-25T14:14:15;14.18;;;1.77;;
35223;SDS011;21367;51.930;8.112;2023-04-25T14:19:22;6.72;;;1.23;;
35223;SDS011;21367;51.930;8.112;2023-04-25T14:24:26;11.25;;;1.73;;
35223;SDS011;21367;51.930;8.112;2023-04-25T14:29:30;7.00;;;1.70;;
35223;SDS011;21367;51.930;8.112;2023-04-25T14:34:36;10.65;;;1.48;;
35223;SDS011;21367;51.930;8.112;2023-04-25T14:39:40;4.40;;;1.15;;
35223;SDS011;21367;51.930;8.112;2023-04-25T14:44:45;10.95;;;1.85;;
35223;SDS011;21367;51.930;8.112;2023-04-25T14:49:51;7.35;;;1.63;;
35223;SDS011;21367;51.930;8.112;2023-04-25T14:54:59;4.35;;;1.05;;
35223;SDS011;21367;51.930;8.112;2023-04-25T15:00:08;13.07;;;1.42;;
35223;SDS011;21367;51.930;8.112;2023-04-25T15:05:19;6.95;;;1.38;;
35223;SDS011;21367;51.930;8.112;2023-04-25T15:10:30;7.03;;;1.13;;
35223;SDS011;21367;51.930;8.112;2023-04-25T15:15:36;3.28;;;1.10;;
35223;SDS011;21367;51.930;8.112;2023-04-25T15:25:49;8.00;;;1.50;;
35223;SDS011;21367;51.930;8.112;2023-04-25T15:30:54;8.57;;;1.67;;
35223;SDS011;21367;51.930;8.112;2023-04-25T15:36:02;10.10;;;1.13;;
35223;SDS011;21367;51.930;8.112;2023-04-25T15:41:06;5.00;;;1.40;;
35223;SDS011;21367;51.930;8.112;2023-04-25T15:46:12;7.68;;;1.38;;
35223;SDS011;21367;51.930;8.112;2023-04-25T15:51:21;5.93;;;1.48;;
35223;SDS011;21367;51.930;8.112;2023-04-25T15:56:25;7.65;;;1.58;;
35223;SDS011;21367;51.930;8.112;2023-04-25T16:01:30;10.73;;;1.60;;
35223;SDS011;21367;51.930;8.112;2023-04-25T16:06:40;9.48;;;1.55;;
35223;SDS011;21367;51.930;8.112;2023-04-25T16:11:47;6.75;;;1.98;;
35223;SDS011;21367;51.930;8.112;2023-04-25T16:16:54;5.75;;;1.83;;
35223;SDS011;21367;51.930;8.112;2023-04-25T16:22:00;11.73;;;2.15;;
35223;SDS011;21367;51.930;8.112;2023-04-25T16:27:05;5.75;;;1.10;;
35223;SDS011;21367;51.930;8.112;2023-04-25T16:32:19;9.30;;;1.27;;
35223;SDS011;21367;51.930;8.112;2023-04-25T16:37:26;7.95;;;1.40;;
35223;SDS011;21367;51.930;8.112;2023-04-25T16:42:30;13.82;;;1.73;;
35223;SDS011;21367;51.930;8.112;2023-04-25T16:47:34;6.95;;;1.30;;
35223;SDS011;21367;51.930;8.112;2023-04-25T16:52:40;7.60;;;1.48;;
35223;SDS011;21367;51.930;8.112;2023-04-25T16:57:44;6.75;;;1.30;;
35223;SDS011;21367;51.930;8.112;2023-04-25T17:07:15;9.65;;;1.30;;
35223;SDS011;21367;51.930;8.112;2023-04-25T17:12:28;9.52;;;1.70;;
35223;SDS011;21367;51.930;8.112;2023-04-25T17:17:32;5.32;;;1.00;;
35223;SDS011;21367;51.930;8.112;2023-04-25T17:22:40;9.98;;;1.25;;
35223;SDS011;21367;51.930;8.112;2023-04-25T17:32:48;5.88;;;1.35;;
35223;SDS011;21367;51.930;8.112;2023-04-25T17:38:05;7.13;;;1.27;;
35223;SDS011;21367;51.930;8.112;2023-04-25T17:43:10;10.10;;;1.40;;
35223;SDS011;21367;51.930;8.112;2023-04-25T17:48:21;5.05;;;1.30;;
35223;SDS011;21367;51.930;8.112;2023-04-25T17:53:29;5.30;;;0.90;;
35223;SDS011;21367;51.930;8.112;2023-04-25T17:58:43;8.57;;;1.70;;
35223;SDS011;21367;51.930;8.112;2023-04-25T18:14:16;7.65;;;2.20;;
35223;SDS011;21367;51.930;8.112;2023-04-25T18:19:20;6.60;;;1.30;;
35223;SDS011;21367;51.930;8.112;2023-04-25T18:24:26;4.70;;;1.08;;
35223;SDS011;21367;51.930;8.112;2023-04-25T18:29:32;6.03;;;1.40;;
35223;SDS011;21367;51.930;8.112;2023-04-25T18:34:36;5.97;;;1.73;;
35223;SDS011;21367;51.930;8.112;2023-04-25T18:39:45;9.45;;;2.13;;
35223;SDS011;21367;51.930;8.112;2023-04-25T18:44:49;12.60;;;1.60;;
35223;SDS011;21367;51.930;8.112;2023-04-25T18:49:53;7.55;;;1.70;;
35223;SDS011;21367;51.930;8.112;2023-04-25T18:55:00;6.25;;;1.10;;
35223;SDS011;21367;51.930;8.112;2023-04-25T19:00:05;6.18;;;1.10;;
35223;SDS011;21367;51.930;8.112;2023-04-25T19:05:22;6.82;;;1.60;;
35223;SDS011;21367;51.930;8.112;2023-04-25T19:10:36;7.70;;;1.52;;
35223;SDS011;21367;51.930;8.112;2023-04-25T19:15:41;5.90;;;1.52;;
35223;SDS011;21367;51.930;8.112;2023-04-25T19:20:45;7.45;;;1.40;;
35223;SDS011;21367;51.930;8.112;2023-04-25T19:25:56;7.18;;;1.85;;
35223;SDS011;21367;51.930;8.112;2023-04-25T19:31:04;11.27;;;1.73;;
35223;SDS011;21367;51.930;8.112;2023-04-25T19:36:08;7.85;;;1.75;;
35223;SDS011;21367;51.930;8.112;2023-04-25T19:41:15;12.02;;;1.65;;
35223;SDS011;21367;51.930;8.112;2023-04-25T19:46:19;6.97;;;1.73;;
35223;SDS011;21367;51.930;8.112;2023-04-25T19:51:24;19.42;;;1.95;;
35223;SDS011;21367;51.930;8.112;2023-04-25T19:56:33;9.73;;;2.17;;
35223;SDS011;21367;51.930;8.112;2023-04-25T20:01:37;13.70;;;2.10;;
35223;SDS011;21367;51.930;8.112;2023-04-25T20:06:41;5.93;;;1.90;;
35223;SDS011;21367;51.930;8.112;2023-04-25T20:11:48;14.23;;;1.95;;
35223;SDS011;21367;51.930;8.112;2023-04-25T20:16:51;10.02;;;1.80;;
35223;SDS011;21367;51.930;8.112;2023-04-25T20:21:55;10.60;;;1.98;;
35223;SDS011;21367;51.930;8.112;2023-04-25T20:27:02;9.05;;;1.83;;
35223;SDS011;21367;51.930;8.112;2023-04-25T20:32:06;7.97;;;2.28;;
35223;SDS011;21367;51.930;8.112;2023-04-25T20:37:11;12.18;;;2.60;;
35223;SDS011;21367;51.930;8.112;2023-04-25T20:42:19;17.60;;;2.92;;
35223;SDS011;21367;51.930;8.112;2023-04-25T20:47:23;8.63;;;2.42;;
35223;SDS011;21367;51.930;8.112;2023-04-25T20:52:27;15.20;;;2.58;;
35223;SDS011;21367;51.930;8.112;2023-04-25T20:57:34;15.68;;;2.75;;
35223;SDS011;21367;51.930;8.112;2023-04-25T21:02:38;16.05;;;2.10;;
35223;SDS011;21367;51.930;8.112;2023-04-25T21:07:42;19.23;;;2.80;;
35223;SDS011;21367;51.930;8.112;2023-04-25T21:12:49;12.52;;;2.47;;
35223;SDS011;21367;51.930;8.112;2023-04-25T21:17:53;16.23;;;2.50;;
35223;SDS011;21367;51.930;8.112;2023-04-25T21:22:57;10.82;;;2.47;;
35223;SDS011;21367;51.930;8.112;2023-04-25T21:28:04;16.17;;;2.53;;
35223;SDS011;21367;51.930;8.112;2023-04-25T21:38:11;11.73;;;3.15;;
35223;SDS011;21367;51.930;8.112;2023-04-25T21:43:18;11.93;;;2.33;;
35223;SDS011;21367;51.930;8.112;2023-04-25T21:48:22;16.20;;;2.90;;
35223;SDS011;21367;51.930;8.112;2023-04-25T21:53:26;7.22;;;2.40;;
35223;SDS011;21367;51.930;8.112;2023-04-25T21:58:33;10.07;;;2.30;;
35223;SDS011;21367;51.930;8.112;2023-04-25T22:03:37;5.95;;;2.05;;
35223;SDS011;21367;51.930;8.112;2023-04-25T22:08:41;14.88;;;2.55;;
35223;SDS011;21367;51.930;8.112;2023-04-25T22:13:47;19.67;;;2.72;;
35223;SDS011;21367;51.930;8.112;2023-04-25T22:18:51;18.23;;;3.03;;
35223;SDS011;21367;51.930;8.112;2023-04-25T22:23:55;16.23;;;2.28;;
35223;SDS011;21367;51.930;8.112;2023-04-25T22:29:02;12.20;;;2.50;;
35223;SDS011;21367;51.930;8.112;2023-04-25T22:34:06;17.15;;;2.15;;
35223;SDS011;21367;51.930;8.112;2023-04-25T22:39:10;13.80;;;2.40;;
35223;SDS011;21367;51.930;8.112;2023-04-25T22:44:18;9.97;;;2.20;;
35223;SDS011;21367;51.930;8.112;2023-04-25T22:54:25;6.90;;;2.20;;
35223;SDS011;21367;51.930;8.112;2023-04-25T22:59:32;11.05;;;2.50;;
35223;SDS011;21367;51.930;8.112;2023-04-25T23:04:37;16.02;;;2.40;;
35223;SDS011;21367;51.930;8.112;2023-04-25T23:09:41;20.10;;;2.92;;
35223;SDS011;21367;51.930;8.112;2023-04-25T23:14:50;15.35;;;2.65;;
35223;SDS011;21367;51.930;8.112;2023-04-25T23:19:53;11.23;;;2.33;;
35223;SDS011;21367;51.930;8.112;2023-04-25T23:24:57;18.60;;;2.78;;
35223;SDS011;21367;51.930;8.112;2023-04-25T23:30:04;15.40;;;2.85;;
35223;SDS011;21367;51.930;8.112;2023-04-25T23:35:09;14.85;;;2.40;;
35223;SDS011;21367;51.930;8.112;2023-04-25T23:40:14;8.65;;;2.38;;
35223;SDS011;21367;51.930;8.112;2023-04-25T23:45:22;19.58;;;2.50;;
35223;SDS011;21367;51.930;8.112;2023-04-25T23:50:26;10.90;;;2.30;;
35223;SDS011;21367;51.930;8.112;2023-04-25T23:55:30;17.60;;;2.65;;
